createdAt,value
2018-04-06T00:00:52.186Z,0
2018-04-06T00:01:52.844Z,0
2018-04-06T00:02:53.531Z,0
2018-04-06T00:03:54.177Z,0
2018-04-06T00:04:54.826Z,0
2018-04-06T00:05:55.516Z,0
2018-04-06T00:06:56.166Z,0
2018-04-06T00:07:56.852Z,0
2018-04-06T00:08:57.503Z,0
2018-04-06T00:09:58.156Z,0
2018-04-06T00:10:58.803Z,0
2018-04-06T00:11:59.453Z,0
2018-04-06T00:13:00.104Z,0
2018-04-06T00:14:00.755Z,0
2018-04-06T00:15:01.409Z,0
2018-04-06T00:16:02.059Z,0
2018-04-06T00:17:02.712Z,0
2018-04-06T00:18:03.361Z,0
2018-04-06T00:19:04.013Z,0
2018-04-06T00:20:04.662Z,0
2018-04-06T00:21:05.313Z,0
2018-04-06T00:22:05.962Z,0
2018-04-06T00:23:06.613Z,0
2018-04-06T00:24:07.263Z,0
2018-04-06T00:25:07.917Z,0
2018-04-06T00:26:08.563Z,0
2018-04-06T00:27:09.214Z,0
2018-04-06T00:28:09.864Z,0
2018-04-06T00:29:10.515Z,0
2018-04-06T00:30:11.164Z,0
2018-04-06T00:31:11.816Z,0
2018-04-06T00:32:12.466Z,0
2018-04-06T00:33:13.116Z,0
2018-04-06T00:34:13.765Z,0
2018-04-06T00:35:14.417Z,0
2018-04-06T00:36:15.067Z,0
2018-04-06T00:37:15.754Z,0
2018-04-06T00:38:16.403Z,0
2018-04-06T00:39:17.058Z,0
2018-04-06T00:40:17.704Z,0
2018-04-06T00:41:18.354Z,0
2018-04-06T00:42:19.004Z,0
2018-04-06T00:43:19.656Z,0
2018-04-06T00:44:20.305Z,0
2018-04-06T00:45:20.992Z,0
2018-04-06T00:46:21.643Z,0
2018-04-06T00:47:22.293Z,0
2018-04-06T00:48:22.943Z,0
2018-04-06T00:49:23.593Z,0
2018-04-06T00:50:24.245Z,0
2018-04-06T00:51:24.896Z,0
2018-04-06T00:52:25.544Z,0
2018-04-06T00:53:26.196Z,0
2018-04-06T00:54:26.845Z,0
2018-04-06T00:55:27.496Z,0
2018-04-06T00:56:28.146Z,0
2018-04-06T00:57:28.799Z,0
2018-04-06T00:58:29.447Z,0
2018-04-06T00:59:30.099Z,0
2018-04-06T01:00:30.748Z,0
2018-04-06T01:01:31.434Z,0
2018-04-06T01:02:32.086Z,0
2018-04-06T01:03:32.737Z,0
2018-04-06T01:04:33.385Z,0
2018-04-06T01:05:34.035Z,0
2018-04-06T01:06:34.684Z,0
2018-04-06T01:07:35.335Z,0
2018-04-06T01:08:35.984Z,0
2018-04-06T01:09:36.633Z,0
2018-04-06T01:10:37.286Z,0
2018-04-06T01:11:37.935Z,0
2018-04-06T01:12:38.589Z,0
2018-04-06T01:13:39.236Z,0
2018-04-06T01:14:39.887Z,0
2018-04-06T01:15:40.536Z,0
2018-04-06T01:16:41.191Z,0
2018-04-06T01:17:41.873Z,0
2018-04-06T01:18:42.524Z,0
2018-04-06T01:19:43.177Z,0
2018-04-06T01:20:43.860Z,0
2018-04-06T01:21:44.511Z,0
2018-04-06T01:22:45.161Z,0
2018-04-06T01:23:45.811Z,0
2018-04-06T01:24:46.461Z,0
2018-04-06T01:25:47.112Z,0
2018-04-06T01:26:47.767Z,0
2018-04-06T01:27:48.411Z,0
2018-04-06T01:28:49.060Z,0
2018-04-06T01:29:49.712Z,0
2018-04-06T01:30:50.361Z,0
2018-04-06T01:31:51.011Z,0
2018-04-06T01:32:51.661Z,0
2018-04-06T01:33:52.312Z,0
2018-04-06T01:34:52.960Z,0
2018-04-06T01:35:53.610Z,0
2018-04-06T01:36:54.260Z,0
2018-04-06T01:37:54.911Z,0
2018-04-06T01:38:55.560Z,0
2018-04-06T01:39:56.211Z,0
2018-04-06T01:40:56.860Z,0
2018-04-06T01:41:57.513Z,0
2018-04-06T01:42:58.161Z,0
2018-04-06T01:43:58.811Z,0
2018-04-06T01:44:59.463Z,0
2018-04-06T01:46:00.115Z,0
2018-04-06T01:47:00.762Z,0
2018-04-06T01:48:01.413Z,0
2018-04-06T01:49:02.107Z,0
2018-04-06T01:50:02.752Z,0
2018-04-06T01:51:03.402Z,0
2018-04-06T01:52:04.052Z,0
2018-04-06T01:53:04.701Z,0
2018-04-06T01:54:05.354Z,0
2018-04-06T01:55:06.002Z,0
2018-04-06T01:56:06.652Z,0
2018-04-06T01:57:07.301Z,0
2018-04-06T01:58:07.953Z,0
2018-04-06T01:59:08.602Z,0
2018-04-06T02:00:09.251Z,0
2018-04-06T02:01:09.900Z,0
2018-04-06T02:02:10.588Z,0
2018-04-06T02:03:11.238Z,0
2018-04-06T02:04:11.887Z,0
2018-04-06T02:05:12.538Z,0
2018-04-06T02:06:13.188Z,0
2018-04-06T02:07:13.838Z,0
2018-04-06T02:08:14.487Z,0
2018-04-06T02:09:15.136Z,0
2018-04-06T02:10:15.788Z,0
2018-04-06T02:11:16.839Z,0
2018-04-06T02:12:17.486Z,0
2018-04-06T02:13:18.136Z,0
2018-04-06T02:14:18.786Z,0
2018-04-06T02:15:19.437Z,0
2018-04-06T02:16:20.089Z,0
2018-04-06T02:17:20.736Z,0
2018-04-06T02:18:21.425Z,0
2018-04-06T02:19:22.073Z,0
2018-04-06T02:20:22.723Z,0
2018-04-06T02:21:23.374Z,0
2018-04-06T02:22:24.023Z,0
2018-04-06T02:23:24.674Z,0
2018-04-06T02:24:25.346Z,0
2018-04-06T02:25:25.977Z,0
2018-04-06T02:26:26.623Z,0
2018-04-06T02:27:27.274Z,0
2018-04-06T02:28:27.924Z,0
2018-04-06T02:29:28.577Z,0
2018-04-06T02:30:29.224Z,0
2018-04-06T02:31:29.876Z,0
2018-04-06T02:32:30.528Z,0
2018-04-06T02:33:31.174Z,0
2018-04-06T02:34:31.822Z,0
2018-04-06T02:35:32.511Z,0
2018-04-06T02:36:33.161Z,0
2018-04-06T02:37:33.810Z,0
2018-04-06T02:38:34.459Z,0
2018-04-06T02:39:35.146Z,0
2018-04-06T02:40:35.796Z,0
2018-04-06T02:41:36.498Z,0
2018-04-06T02:42:37.182Z,0
2018-04-06T02:43:37.892Z,0
2018-04-06T02:44:38.485Z,0
2018-04-06T02:45:39.131Z,0
2018-04-06T02:46:39.781Z,0
2018-04-06T02:47:40.431Z,0
2018-04-06T02:48:41.082Z,0
2018-04-06T02:49:41.731Z,0
2018-04-06T02:50:42.382Z,0
2018-04-06T02:51:43.068Z,0
2018-04-06T02:52:43.718Z,0
2018-04-06T02:53:44.366Z,0
2018-04-06T02:54:45.020Z,0
2018-04-06T02:55:45.669Z,0
2018-04-06T02:56:46.320Z,0
2018-04-06T02:57:46.974Z,0
2018-04-06T02:58:47.620Z,0
2018-04-06T02:59:48.269Z,0
2018-04-06T03:00:48.920Z,0
2018-04-06T03:01:49.576Z,0
2018-04-06T03:02:50.254Z,0
2018-04-06T03:03:50.904Z,0
2018-04-06T03:04:51.552Z,0
2018-04-06T03:05:52.204Z,0
2018-04-06T03:06:52.852Z,0
2018-04-06T03:07:53.501Z,0
2018-04-06T03:08:54.151Z,0
2018-04-06T03:09:54.801Z,0
2018-04-06T03:10:55.449Z,0
2018-04-06T03:11:56.099Z,0
2018-04-06T03:12:56.748Z,0
2018-04-06T03:13:57.398Z,0
2018-04-06T03:14:58.054Z,0
2018-04-06T03:15:58.698Z,0
2018-04-06T03:16:59.348Z,0
2018-04-06T03:17:59.997Z,0
2018-04-06T03:19:00.647Z,0
2018-04-06T03:20:01.296Z,0
2018-04-06T03:21:01.947Z,0
2018-04-06T03:22:02.598Z,0
2018-04-06T03:23:03.249Z,0
2018-04-06T03:24:03.898Z,0
2018-04-06T03:25:04.549Z,0
2018-04-06T03:26:05.197Z,0
2018-04-06T03:27:05.848Z,0
2018-04-06T03:28:06.496Z,0
2018-04-06T03:29:07.146Z,0
2018-04-06T03:30:07.796Z,0
2018-04-06T03:31:08.447Z,0
2018-04-06T03:32:09.096Z,0
2018-04-06T03:33:09.749Z,0
2018-04-06T03:34:10.394Z,0
2018-04-06T03:35:11.045Z,0
2018-04-06T03:36:11.694Z,0
2018-04-06T03:37:12.344Z,0
2018-04-06T03:38:12.993Z,0
2018-04-06T03:39:13.643Z,0
2018-04-06T03:40:14.293Z,0
2018-04-06T03:41:14.943Z,0
2018-04-06T03:42:15.595Z,0
2018-04-06T03:43:16.242Z,0
2018-04-06T03:44:16.891Z,0
2018-04-06T03:45:17.541Z,0
2018-04-06T03:46:18.190Z,0
2018-04-06T03:47:18.840Z,0
2018-04-06T03:48:19.489Z,0
2018-04-06T03:49:20.138Z,0
2018-04-06T03:50:20.786Z,0
2018-04-06T03:51:21.437Z,0
2018-04-06T03:52:22.086Z,0
2018-04-06T03:53:22.739Z,0
2018-04-06T03:54:23.422Z,0
2018-04-06T03:55:24.073Z,0
2018-04-06T03:56:24.762Z,0
2018-04-06T03:57:25.445Z,0
2018-04-06T03:58:26.096Z,0
2018-04-06T03:59:26.744Z,0
2018-04-06T04:00:27.394Z,0
2018-04-06T04:01:28.043Z,0
2018-04-06T04:02:28.743Z,0
2018-04-06T04:03:29.341Z,0
2018-04-06T04:04:29.992Z,0
2018-04-06T04:05:30.641Z,0
2018-04-06T04:06:31.291Z,0
2018-04-06T04:07:31.940Z,0
2018-04-06T04:08:32.589Z,0
2018-04-06T04:09:33.238Z,0
2018-04-06T04:10:33.890Z,0
2018-04-06T04:11:34.538Z,0
2018-04-06T04:12:35.188Z,0
2018-04-06T04:13:35.836Z,0
2018-04-06T04:14:36.490Z,0
2018-04-06T04:15:37.137Z,0
2018-04-06T04:16:37.786Z,0
2018-04-06T04:17:38.434Z,0
2018-04-06T04:18:39.085Z,0
2018-04-06T04:19:39.734Z,0
2018-04-06T04:20:40.385Z,0
2018-04-06T04:21:41.046Z,0
2018-04-06T04:22:41.686Z,0
2018-04-06T04:23:42.372Z,0
2018-04-06T04:24:43.024Z,0
2018-04-06T04:25:43.673Z,0
2018-04-06T04:26:44.325Z,0
2018-04-06T04:27:44.976Z,0
2018-04-06T04:28:45.624Z,0
2018-04-06T04:29:46.276Z,0
2018-04-06T04:30:46.925Z,0
2018-04-06T04:31:47.576Z,0
2018-04-06T04:32:48.228Z,0
2018-04-06T04:33:48.914Z,0
2018-04-06T04:34:49.565Z,0
2018-04-06T04:35:50.219Z,0
2018-04-06T04:36:50.869Z,0
2018-04-06T04:37:51.520Z,0
2018-04-06T04:38:52.170Z,0
2018-04-06T04:39:52.825Z,0
2018-04-06T04:40:53.476Z,5
2018-04-06T04:41:54.127Z,5
2018-04-06T04:42:54.778Z,5
2018-04-06T04:43:55.430Z,5
2018-04-06T04:44:56.083Z,5
2018-04-06T04:45:56.771Z,5
2018-04-06T04:46:57.422Z,5
2018-04-06T04:47:58.074Z,5
2018-04-06T04:48:58.726Z,11
2018-04-06T04:49:59.379Z,11
2018-04-06T04:51:00.034Z,11
2018-04-06T04:52:00.686Z,11
2018-04-06T04:53:01.344Z,11
2018-04-06T04:54:01.992Z,11
2018-04-06T04:55:02.646Z,11
2018-04-06T04:56:03.298Z,16
2018-04-06T04:57:03.952Z,16
2018-04-06T04:58:04.608Z,16
2018-04-06T04:59:05.257Z,16
2018-04-06T05:00:05.910Z,16
2018-04-06T05:01:06.562Z,16
2018-04-06T05:02:07.215Z,22
2018-04-06T05:03:07.870Z,22
2018-04-06T05:04:08.521Z,22
2018-04-06T05:05:09.174Z,22
2018-04-06T05:06:09.826Z,22
2018-04-06T05:07:10.478Z,22
2018-04-06T05:08:11.133Z,28
2018-04-06T05:09:11.785Z,28
2018-04-06T05:10:12.439Z,28
2018-04-06T05:11:13.091Z,28
2018-04-06T05:12:13.745Z,28
2018-04-06T05:13:14.400Z,28
2018-04-06T05:14:15.091Z,28
2018-04-06T05:15:15.750Z,33
2018-04-06T05:16:16.397Z,33
2018-04-06T05:17:17.052Z,33
2018-04-06T05:18:17.706Z,33
2018-04-06T05:19:18.360Z,33
2018-04-06T05:20:19.012Z,33
2018-04-06T05:21:19.668Z,33
2018-04-06T05:22:20.325Z,33
2018-04-06T05:23:20.978Z,39
2018-04-06T05:24:21.689Z,39
2018-04-06T05:25:22.313Z,39
2018-04-06T05:26:22.968Z,39
2018-04-06T05:27:23.623Z,39
2018-04-06T05:28:24.278Z,39
2018-04-06T05:29:24.929Z,39
2018-04-06T05:30:25.619Z,39
2018-04-06T05:31:26.274Z,45
2018-04-06T05:32:26.951Z,45
2018-04-06T05:33:27.617Z,45
2018-04-06T05:34:28.270Z,45
2018-04-06T05:35:28.957Z,45
2018-04-06T05:36:29.612Z,45
2018-04-06T05:37:30.314Z,45
2018-04-06T05:38:30.920Z,45
2018-04-06T05:39:31.572Z,45
2018-04-06T05:40:32.229Z,45
2018-04-06T05:41:32.880Z,45
2018-04-06T05:42:33.535Z,50
2018-04-06T05:43:34.194Z,50
2018-04-06T05:44:34.844Z,50
2018-04-06T05:45:35.499Z,50
2018-04-06T05:46:36.194Z,50
2018-04-06T05:47:36.846Z,50
2018-04-06T05:48:37.500Z,50
2018-04-06T05:49:38.155Z,50
2018-04-06T05:50:38.811Z,50
2018-04-06T05:51:39.464Z,50
2018-04-06T05:52:40.118Z,56
2018-04-06T05:53:40.772Z,50
2018-04-06T05:54:41.432Z,56
2018-04-06T05:55:42.083Z,56
2018-04-06T05:56:42.774Z,56
2018-04-06T05:57:43.461Z,56
2018-04-06T05:58:44.117Z,56
2018-04-06T05:59:44.769Z,56
2018-04-06T06:00:45.423Z,56
2018-04-06T06:01:46.078Z,56
2018-04-06T06:02:46.732Z,56
2018-04-06T06:03:47.387Z,56
2018-04-06T06:04:48.077Z,56
2018-04-06T06:05:48.739Z,61
2018-04-06T06:06:49.422Z,61
2018-04-06T06:07:50.077Z,61
2018-04-06T06:08:50.730Z,61
2018-04-06T06:09:51.432Z,61
2018-04-06T06:10:52.075Z,56
2018-04-06T06:11:52.734Z,61
2018-04-06T06:12:53.385Z,61
2018-04-06T06:13:54.039Z,61
2018-04-06T06:14:54.695Z,67
2018-04-06T06:15:55.349Z,67
2018-04-06T06:16:56.000Z,67
2018-04-06T06:17:56.655Z,67
2018-04-06T06:18:57.312Z,67
2018-04-06T06:19:57.965Z,67
2018-04-06T06:20:58.619Z,67
2018-04-06T06:21:59.274Z,67
2018-04-06T06:22:59.928Z,67
2018-04-06T06:24:00.582Z,67
2018-04-06T06:25:01.239Z,67
2018-04-06T06:26:01.898Z,67
2018-04-06T06:27:02.553Z,73
2018-04-06T06:28:03.208Z,73
2018-04-06T06:29:03.900Z,73
2018-04-06T06:30:04.518Z,73
2018-04-06T06:31:05.175Z,73
2018-04-06T06:32:05.865Z,73
2018-04-06T06:33:06.521Z,73
2018-04-06T06:34:07.175Z,73
2018-04-06T06:35:07.829Z,78
2018-04-06T06:36:08.485Z,78
2018-04-06T06:37:09.140Z,78
2018-04-06T06:38:09.794Z,78
2018-04-06T06:39:10.449Z,78
2018-04-06T06:40:11.105Z,78
2018-04-06T06:41:11.760Z,78
2018-04-06T06:42:12.415Z,84
2018-04-06T06:43:13.069Z,84
2018-04-06T06:44:13.724Z,84
2018-04-06T06:45:14.379Z,84
2018-04-06T06:46:15.034Z,84
2018-04-06T06:47:15.692Z,84
2018-04-06T06:48:16.349Z,90
2018-04-06T06:49:17.002Z,90
2018-04-06T06:50:17.657Z,95
2018-04-06T06:51:18.312Z,95
2018-04-06T06:52:18.976Z,101
2018-04-06T06:53:19.624Z,106
2018-04-06T06:54:20.314Z,112
2018-04-06T06:55:20.939Z,118
2018-04-06T06:56:21.631Z,123
2018-04-06T06:57:22.288Z,129
2018-04-06T06:58:22.945Z,140
2018-04-06T06:59:23.601Z,146
2018-04-06T07:00:24.257Z,174
2018-04-06T07:01:24.915Z,213
2018-04-06T07:02:25.576Z,253
2018-04-06T07:03:26.235Z,275
2018-04-06T07:04:26.893Z,281
2018-04-06T07:05:27.552Z,286
2018-04-06T07:06:28.210Z,247
2018-04-06T07:07:28.870Z,258
2018-04-06T07:08:29.530Z,247
2018-04-06T07:09:30.188Z,225
2018-04-06T07:10:30.849Z,258
2018-04-06T07:11:31.509Z,247
2018-04-06T07:12:32.169Z,247
2018-04-06T07:13:32.831Z,275
2018-04-06T07:14:33.530Z,286
2018-04-06T07:15:34.191Z,286
2018-04-06T07:16:34.853Z,281
2018-04-06T07:17:35.515Z,253
2018-04-06T07:18:36.176Z,286
2018-04-06T07:19:36.838Z,286
2018-04-06T07:20:37.500Z,258
2018-04-06T07:21:38.162Z,270
2018-04-06T07:22:38.825Z,286
2018-04-06T07:23:39.489Z,286
2018-04-06T07:24:40.152Z,286
2018-04-06T07:25:40.817Z,286
2018-04-06T07:26:41.479Z,286
2018-04-06T07:27:42.143Z,292
2018-04-06T07:28:42.807Z,292
2018-04-06T07:29:43.471Z,292
2018-04-06T07:30:44.134Z,292
2018-04-06T07:31:44.798Z,292
2018-04-06T07:32:45.461Z,292
2018-04-06T07:33:46.126Z,292
2018-04-06T07:34:46.794Z,298
2018-04-06T07:35:47.457Z,298
2018-04-06T07:36:48.121Z,298
2018-04-06T07:37:48.835Z,298
2018-04-06T07:38:49.451Z,298
2018-04-06T07:39:50.116Z,303
2018-04-06T07:40:50.784Z,303
2018-04-06T07:41:51.449Z,298
2018-04-06T07:42:52.114Z,298
2018-04-06T07:43:52.780Z,292
2018-04-06T07:44:53.545Z,281
2018-04-06T07:45:54.277Z,298
2018-04-06T07:46:54.943Z,270
2018-04-06T07:47:55.608Z,275
2018-04-06T07:48:56.275Z,286
2018-04-06T07:49:56.941Z,270
2018-04-06T07:50:57.607Z,264
2018-04-06T07:51:58.273Z,275
2018-04-06T07:52:58.944Z,292
2018-04-06T07:53:59.605Z,298
2018-04-06T07:55:00.273Z,298
2018-04-06T07:56:00.940Z,292
2018-04-06T07:57:01.643Z,292
2018-04-06T07:58:02.307Z,275
2018-04-06T07:59:02.974Z,213
2018-04-06T08:00:03.642Z,241
2018-04-06T08:01:04.308Z,253
2018-04-06T08:02:04.976Z,264
2018-04-06T08:03:05.643Z,281
2018-04-06T08:04:06.310Z,275
2018-04-06T08:05:06.979Z,270
2018-04-06T08:06:07.645Z,275
2018-04-06T08:07:08.317Z,281
2018-04-06T08:08:08.980Z,275
2018-04-06T08:09:09.648Z,275
2018-04-06T08:10:10.315Z,275
2018-04-06T08:11:10.982Z,275
2018-04-06T08:12:11.648Z,270
2018-04-06T08:13:12.316Z,270
2018-04-06T08:14:12.984Z,264
2018-04-06T08:15:13.650Z,258
2018-04-06T08:16:14.321Z,270
2018-04-06T08:17:14.987Z,270
2018-04-06T08:18:15.656Z,270
2018-04-06T08:19:16.325Z,264
2018-04-06T08:20:16.995Z,264
2018-04-06T08:21:17.664Z,264
2018-04-06T08:22:18.330Z,264
2018-04-06T08:23:18.998Z,258
2018-04-06T08:24:19.667Z,258
2018-04-06T08:25:20.333Z,253
2018-04-06T08:26:21.092Z,247
2018-04-06T08:27:21.669Z,247
2018-04-06T08:28:22.336Z,241
2018-04-06T08:29:23.005Z,236
2018-04-06T08:30:23.676Z,241
2018-04-06T08:31:24.351Z,230
2018-04-06T08:32:25.029Z,230
2018-04-06T08:33:25.696Z,225
2018-04-06T08:34:26.367Z,219
2018-04-06T08:35:27.037Z,219
2018-04-06T08:36:27.704Z,219
2018-04-06T08:37:28.371Z,213
2018-04-06T08:38:29.039Z,208
2018-04-06T08:39:29.708Z,208
2018-04-06T08:40:30.375Z,202
2018-04-06T08:41:31.046Z,202
2018-04-06T08:42:31.713Z,202
2018-04-06T08:43:32.380Z,202
2018-04-06T08:44:33.046Z,196
2018-04-06T08:45:33.717Z,196
2018-04-06T08:46:34.384Z,196
2018-04-06T08:47:35.097Z,196
2018-04-06T08:48:35.719Z,191
2018-04-06T08:49:36.386Z,191
2018-04-06T08:50:37.055Z,185
2018-04-06T08:51:37.723Z,185
2018-04-06T08:52:38.390Z,185
2018-04-06T08:53:39.057Z,180
2018-04-06T08:54:39.736Z,180
2018-04-06T08:55:40.421Z,180
2018-04-06T08:56:41.089Z,180
2018-04-06T08:57:41.756Z,180
2018-04-06T08:58:42.424Z,180
2018-04-06T08:59:43.093Z,180
2018-04-06T09:00:43.760Z,174
2018-04-06T09:01:44.428Z,174
2018-04-06T09:02:45.098Z,174
2018-04-06T09:03:45.765Z,174
2018-04-06T09:04:46.469Z,174
2018-04-06T09:05:47.101Z,168
2018-04-06T09:06:47.784Z,168
2018-04-06T09:07:48.433Z,168
2018-04-06T09:08:49.100Z,174
2018-04-06T09:09:49.773Z,168
2018-04-06T09:10:50.440Z,168
2018-04-06T09:11:51.112Z,168
2018-04-06T09:12:51.775Z,163
2018-04-06T09:13:52.454Z,163
2018-04-06T09:14:53.111Z,163
2018-04-06T09:15:53.817Z,163
2018-04-06T09:16:54.482Z,163
2018-04-06T09:17:55.150Z,163
2018-04-06T09:18:55.821Z,163
2018-04-06T09:19:56.484Z,163
2018-04-06T09:20:57.158Z,157
2018-04-06T09:21:57.818Z,163
2018-04-06T09:22:58.486Z,157
2018-04-06T09:23:59.155Z,157
2018-04-06T09:24:59.824Z,157
2018-04-06T09:26:00.494Z,157
2018-04-06T09:27:01.162Z,157
2018-04-06T09:28:01.830Z,157
2018-04-06T09:29:02.533Z,157
2018-04-06T09:30:03.202Z,151
2018-04-06T09:31:03.874Z,151
2018-04-06T09:32:04.535Z,151
2018-04-06T09:33:05.240Z,146
2018-04-06T09:34:05.909Z,146
2018-04-06T09:35:06.575Z,146
2018-04-06T09:36:07.244Z,146
2018-04-06T09:37:07.911Z,146
2018-04-06T09:38:08.576Z,146
2018-04-06T09:39:09.245Z,146
2018-04-06T09:40:09.911Z,146
2018-04-06T09:41:10.578Z,146
2018-04-06T09:42:11.248Z,140
2018-04-06T09:43:11.914Z,140
2018-04-06T09:44:12.582Z,140
2018-04-06T09:45:13.247Z,140
2018-04-06T09:46:13.915Z,140
2018-04-06T09:47:14.583Z,140
2018-04-06T09:48:15.251Z,140
2018-04-06T09:49:15.916Z,140
2018-04-06T09:50:16.584Z,140
2018-04-06T09:51:17.250Z,140
2018-04-06T09:52:17.917Z,140
2018-04-06T09:53:18.584Z,140
2018-04-06T09:54:19.251Z,140
2018-04-06T09:55:19.917Z,140
2018-04-06T09:56:20.584Z,140
2018-04-06T09:57:21.302Z,140
2018-04-06T09:58:21.947Z,140
2018-04-06T09:59:22.614Z,135
2018-04-06T10:00:23.282Z,135
2018-04-06T10:01:23.948Z,135
2018-04-06T10:02:24.614Z,135
2018-04-06T10:03:25.283Z,135
2018-04-06T10:04:25.951Z,135
2018-04-06T10:05:26.619Z,135
2018-04-06T10:06:27.287Z,135
2018-04-06T10:07:27.955Z,135
2018-04-06T10:08:28.622Z,135
2018-04-06T10:09:29.291Z,135
2018-04-06T10:10:29.953Z,135
2018-04-06T10:11:30.620Z,135
2018-04-06T10:12:31.290Z,129
2018-04-06T10:13:31.989Z,129
2018-04-06T10:14:32.655Z,129
2018-04-06T10:15:33.360Z,129
2018-04-06T10:16:34.026Z,129
2018-04-06T10:17:34.693Z,129
2018-04-06T10:18:35.358Z,129
2018-04-06T10:19:36.024Z,129
2018-04-06T10:20:36.690Z,129
2018-04-06T10:21:37.357Z,129
2018-04-06T10:22:38.023Z,129
2018-04-06T10:23:38.686Z,129
2018-04-06T10:24:39.354Z,129
2018-04-06T10:25:40.023Z,129
2018-04-06T10:26:40.687Z,129
2018-04-06T10:27:41.353Z,129
2018-04-06T10:28:42.017Z,129
2018-04-06T10:29:42.682Z,129
2018-04-06T10:30:43.346Z,129
2018-04-06T10:31:44.061Z,118
2018-04-06T10:32:44.727Z,118
2018-04-06T10:33:45.391Z,112
2018-04-06T10:34:46.092Z,112
2018-04-06T10:35:46.756Z,112
2018-04-06T10:36:47.459Z,112
2018-04-06T10:37:48.124Z,112
2018-04-06T10:38:48.843Z,112
2018-04-06T10:39:49.450Z,112
2018-04-06T10:40:50.114Z,112
2018-04-06T10:41:50.788Z,112
2018-04-06T10:42:51.443Z,112
2018-04-06T10:43:52.107Z,112
2018-04-06T10:44:52.768Z,112
2018-04-06T10:45:53.433Z,112
2018-04-06T10:46:54.097Z,112
2018-04-06T10:47:54.764Z,112
2018-04-06T10:48:55.428Z,112
2018-04-06T10:49:56.092Z,112
2018-04-06T10:50:56.753Z,112
2018-04-06T10:51:57.416Z,112
2018-04-06T10:52:58.082Z,118
2018-04-06T10:53:58.786Z,118
2018-04-06T10:54:59.485Z,118
2018-04-06T10:56:00.153Z,118
2018-04-06T10:57:00.815Z,118
2018-04-06T10:58:01.481Z,118
2018-04-06T10:59:02.180Z,118
2018-04-06T11:00:02.881Z,118
2018-04-06T11:01:03.581Z,118
2018-04-06T11:02:04.244Z,118
2018-04-06T11:03:04.912Z,118
2018-04-06T11:04:05.610Z,118
2018-04-06T11:05:06.272Z,118
2018-04-06T11:06:06.935Z,118
2018-04-06T11:07:07.598Z,118
2018-04-06T11:08:08.261Z,118
2018-04-06T11:09:08.922Z,118
2018-04-06T11:10:09.704Z,118
2018-04-06T11:11:10.247Z,118
2018-04-06T11:12:10.915Z,118
2018-04-06T11:13:11.575Z,118
2018-04-06T11:14:12.240Z,118
2018-04-06T11:15:12.938Z,118
2018-04-06T11:16:13.600Z,118
2018-04-06T11:17:14.262Z,118
2018-04-06T11:18:14.926Z,118
2018-04-06T11:19:15.591Z,118
2018-04-06T11:20:16.253Z,118
2018-04-06T11:21:16.916Z,118
2018-04-06T11:22:17.580Z,118
2018-04-06T11:23:18.244Z,118
2018-04-06T11:24:18.908Z,118
2018-04-06T11:25:19.572Z,118
2018-04-06T11:26:20.234Z,118
2018-04-06T11:27:20.934Z,118
2018-04-06T11:28:21.598Z,112
2018-04-06T11:29:22.260Z,118
2018-04-06T11:30:22.922Z,118
2018-04-06T11:31:23.584Z,118
2018-04-06T11:32:24.247Z,118
2018-04-06T11:33:24.911Z,118
2018-04-06T11:34:25.574Z,118
2018-04-06T11:35:26.238Z,118
2018-04-06T11:36:26.899Z,118
2018-04-06T11:37:27.575Z,118
2018-04-06T11:38:28.223Z,112
2018-04-06T11:39:28.886Z,112
2018-04-06T11:40:29.552Z,112
2018-04-06T11:41:30.213Z,112
2018-04-06T11:42:30.876Z,112
2018-04-06T11:43:31.539Z,112
2018-04-06T11:44:32.202Z,118
2018-04-06T11:45:32.864Z,118
2018-04-06T11:46:33.533Z,118
2018-04-06T11:47:34.190Z,118
2018-04-06T11:48:34.854Z,118
2018-04-06T11:49:35.553Z,118
2018-04-06T11:50:36.217Z,118
2018-04-06T11:51:36.879Z,118
2018-04-06T11:52:37.540Z,118
2018-04-06T11:53:38.206Z,118
2018-04-06T11:54:38.905Z,123
2018-04-06T11:55:39.569Z,118
2018-04-06T11:56:40.232Z,118
2018-04-06T11:57:40.931Z,118
2018-04-06T11:58:41.594Z,118
2018-04-06T11:59:42.261Z,118
2018-04-06T12:00:42.920Z,118
2018-04-06T12:01:43.583Z,118
2018-04-06T12:02:44.247Z,118
2018-04-06T12:03:44.911Z,118
2018-04-06T12:04:45.575Z,118
2018-04-06T12:05:46.238Z,118
2018-04-06T12:06:46.900Z,118
2018-04-06T12:07:47.572Z,118
2018-04-06T12:08:48.225Z,118
2018-04-06T12:09:48.887Z,118
2018-04-06T12:10:49.548Z,118
2018-04-06T12:11:50.212Z,118
2018-04-06T12:12:50.917Z,118
2018-04-06T12:13:51.577Z,118
2018-04-06T12:14:52.241Z,118
2018-04-06T12:15:52.900Z,118
2018-04-06T12:16:53.602Z,118
2018-04-06T12:17:54.266Z,118
2018-04-06T12:18:54.929Z,118
2018-04-06T12:19:55.591Z,118
2018-04-06T12:20:56.293Z,118
2018-04-06T12:21:56.959Z,118
2018-04-06T12:22:57.624Z,118
2018-04-06T12:23:58.285Z,118
2018-04-06T12:24:58.951Z,118
2018-04-06T12:25:59.607Z,118
2018-04-06T12:27:00.272Z,118
2018-04-06T12:28:00.936Z,118
2018-04-06T12:29:01.600Z,118
2018-04-06T12:30:02.262Z,118
2018-04-06T12:31:02.926Z,118
2018-04-06T12:32:03.626Z,118
2018-04-06T12:33:04.288Z,118
2018-04-06T12:34:04.955Z,118
2018-04-06T12:35:05.614Z,118
2018-04-06T12:36:06.279Z,118
2018-04-06T12:37:06.940Z,118
2018-04-06T12:38:07.603Z,118
2018-04-06T12:39:08.267Z,118
2018-04-06T12:40:08.929Z,118
2018-04-06T12:41:09.593Z,118
2018-04-06T12:42:10.258Z,118
2018-04-06T12:43:10.923Z,118
2018-04-06T12:44:11.589Z,118
2018-04-06T12:45:12.247Z,118
2018-04-06T12:46:12.910Z,118
2018-04-06T12:47:13.572Z,118
2018-04-06T12:48:14.238Z,118
2018-04-06T12:49:14.933Z,118
2018-04-06T12:50:15.598Z,118
2018-04-06T12:51:16.261Z,118
2018-04-06T12:52:16.925Z,118
2018-04-06T12:53:17.588Z,123
2018-04-06T12:54:18.251Z,123
2018-04-06T12:55:18.913Z,123
2018-04-06T12:56:19.576Z,123
2018-04-06T12:57:20.242Z,123
2018-04-06T12:58:20.902Z,123
2018-04-06T12:59:21.564Z,123
2018-04-06T13:00:22.228Z,123
2018-04-06T13:01:22.894Z,123
2018-04-06T13:02:23.558Z,123
2018-04-06T13:03:24.223Z,123
2018-04-06T13:04:24.886Z,123
2018-04-06T13:05:25.547Z,123
2018-04-06T13:06:26.211Z,123
2018-04-06T13:07:26.881Z,123
2018-04-06T13:08:27.579Z,123
2018-04-06T13:09:28.241Z,123
2018-04-06T13:10:28.937Z,123
2018-04-06T13:11:29.567Z,123
2018-04-06T13:12:30.232Z,123
2018-04-06T13:13:30.936Z,123
2018-04-06T13:14:31.596Z,123
2018-04-06T13:15:32.259Z,123
2018-04-06T13:16:32.923Z,123
2018-04-06T13:17:33.598Z,123
2018-04-06T13:18:34.253Z,123
2018-04-06T13:19:34.914Z,123
2018-04-06T13:20:35.578Z,123
2018-04-06T13:21:36.242Z,123
2018-04-06T13:22:36.908Z,123
2018-04-06T13:23:37.571Z,123
2018-04-06T13:24:38.242Z,123
2018-04-06T13:25:38.897Z,123
2018-04-06T13:26:39.559Z,123
2018-04-06T13:27:40.223Z,123
2018-04-06T13:28:40.922Z,123
2018-04-06T13:29:41.585Z,123
2018-04-06T13:30:42.249Z,123
2018-04-06T13:31:42.915Z,123
2018-04-06T13:32:43.578Z,123
2018-04-06T13:33:44.243Z,123
2018-04-06T13:34:44.906Z,123
2018-04-06T13:35:45.568Z,129
2018-04-06T13:36:46.232Z,123
2018-04-06T13:37:46.897Z,129
2018-04-06T13:38:47.560Z,123
2018-04-06T13:39:48.224Z,129
2018-04-06T13:40:48.887Z,129
2018-04-06T13:41:49.551Z,129
2018-04-06T13:42:50.260Z,129
2018-04-06T13:43:50.918Z,129
2018-04-06T13:44:51.582Z,129
2018-04-06T13:45:52.243Z,129
2018-04-06T13:46:52.908Z,129
2018-04-06T13:47:53.573Z,129
2018-04-06T13:48:54.271Z,129
2018-04-06T13:49:54.935Z,129
2018-04-06T13:50:55.602Z,129
2018-04-06T13:51:56.265Z,129
2018-04-06T13:52:56.933Z,129
2018-04-06T13:53:57.592Z,129
2018-04-06T13:54:58.270Z,129
2018-04-06T13:55:58.918Z,129
2018-04-06T13:56:59.582Z,129
2018-04-06T13:58:00.250Z,129
2018-04-06T13:59:00.909Z,129
2018-04-06T14:00:01.576Z,129
2018-04-06T14:01:02.288Z,129
2018-04-06T14:02:02.906Z,123
2018-04-06T14:03:03.570Z,129
2018-04-06T14:04:04.233Z,123
2018-04-06T14:05:04.895Z,123
2018-04-06T14:06:05.558Z,123
2018-04-06T14:07:06.221Z,123
2018-04-06T14:08:06.888Z,123
2018-04-06T14:09:07.589Z,123
2018-04-06T14:10:08.248Z,123
2018-04-06T14:11:08.911Z,123
2018-04-06T14:12:09.573Z,123
2018-04-06T14:13:10.239Z,123
2018-04-06T14:14:10.895Z,123
2018-04-06T14:15:11.616Z,123
2018-04-06T14:16:12.222Z,123
2018-04-06T14:17:12.884Z,123
2018-04-06T14:18:13.548Z,123
2018-04-06T14:19:14.215Z,123